Aérodrome :
LOGIN :

S'inscrire | Disclaimer

   EN    FR    IT 

 










Légende :    VFR   VFR Marginal   IFR   IFR Intensif   IFR Très Intensif
Visi : 
Plafond : 
>= 8 km
>= 3000ft
5 à 8 km
1000 à 3000 ft
1500m à 5 km
500 à 1000 ft
800 à 1500m
200 à 500 ft
< 800m
< 200 ft
Symboles :   Orages  Brouillard  Fortes neiges  Fortes précipitations  Vent > 20 kt
SIGMETs :   Divers  Orages  Givrage  Turbulence  Onde Orograph.  Cendres Volcan.






- Altitude de l'aérodrome : 3100 ft
- Code IATA : NAV


LTAZ - Kapadokya

DERNIER METAR :
  • 301520Z 24004KT 9999 SCT035 BKN100 09/01 Q1013 RMK RWY29 24004KT

METARs EXPIRÉS :
  • 301420Z 23005KT 190V270 9999 SCT035 BKN100 09/02 Q1013 RMK RWY29 24006KT
  • 301350Z 25005KT 200V300 9999 SCT035 BKN100 09/01 Q1013 RMK RWY29 25005KT

TAF TAF LTAZ
Valide du 30 à 12h jusqu'au 31 à 12h UTC


301040Z 3012/3112 24012KT 9999 SCT040 BKN100
TEMPO 3012/3016 -SHRA FEW025CB BKN030
BECMG 3015/3018 12008KT
BECMG 3019/3022 CAVOK
BECMG 3103/3106 SCT040 BKN100



MET'MAP, la Météo Aéronautique d'un coup d'oeil ! - Copyright ORBIFLY Décembre 2007 - Disclaimer

ORBIFLY MET'MAP TEAM :

Programmation & Développement : Alexandra Zaïnal
Sur une idée originale de : Baudouin d'Aumeries
Assistance à la programmation : Marc-Olivier Méhu
Soutien technique & logistique : Manuel Goepfert

Contact : metmap@orbifly.com




SOURCES & CREDITS :

   NOAA